sensor_id;sensor_type;location;lat;lon;timestamp;pressure;altitude;pressure_sealevel;temperature;humidity
41264;BME280;26998;48.714;9.414;2023-08-24T00:00:20;99875.31;;;18.59;100.00
41264;BME280;26998;48.714;9.414;2023-08-24T00:02:46;99878.19;;;18.64;100.00
41264;BME280;26998;48.714;9.414;2023-08-24T00:05:13;99848.09;;;18.72;100.00
41264;BME280;26998;48.714;9.414;2023-08-24T00:07:40;99859.38;;;18.69;100.00
41264;BME280;26998;48.714;9.414;2023-08-24T00:10:07;99851.69;;;18.66;100.00
41264;BME280;26998;48.714;9.414;2023-08-24T00:12:33;99855.09;;;18.61;100.00
41264;BME280;26998;48.714;9.414;2023-08-24T00:15:00;99874.75;;;18.57;100.00
41264;BME280;26998;48.714;9.414;2023-08-24T00:17:29;99873.22;;;18.61;100.00
41264;BME280;26998;48.714;9.414;2023-08-24T00:19:56;99843.81;;;18.64;100.00
41264;BME280;26998;48.714;9.414;2023-08-24T00:22:23;99825.59;;;18.72;100.00
41264;BME280;26998;48.714;9.414;2023-08-24T00:24:49;99803.41;;;18.81;100.00
41264;BME280;26998;48.714;9.414;2023-08-24T00:27:16;99806.44;;;18.91;100.00
41264;BME280;26998;48.714;9.414;2023-08-24T00:29:42;99816.44;;;18.91;100.00
41264;BME280;26998;48.714;9.414;2023-08-24T00:32:09;99828.94;;;18.74;100.00
41264;BME280;26998;48.714;9.414;2023-08-24T00:34:35;99848.06;;;18.79;100.00
41264;BME280;26998;48.714;9.414;2023-08-24T00:37:02;99846.63;;;18.76;100.00
41264;BME280;26998;48.714;9.414;2023-08-24T00:39:29;99835.09;;;18.81;100.00
41264;BME280;26998;48.714;9.414;2023-08-24T00:41:55;99848.31;;;18.70;100.00
41264;BME280;26998;48.714;9.414;2023-08-24T00:44:22;99850.88;;;18.65;100.00
41264;BME280;26998;48.714;9.414;2023-08-24T00:46:49;99850.06;;;18.65;100.00
41264;BME280;26998;48.714;9.414;2023-08-24T00:49:16;99887.41;;;18.38;100.00
41264;BME280;26998;48.714;9.414;2023-08-24T00:51:42;99937.25;;;18.30;100.00
41264;BME280;26998;48.714;9.414;2023-08-24T00:54:09;99970.88;;;18.16;100.00
41264;BME280;26998;48.714;9.414;2023-08-24T00:56:35;100015.69;;;18.05;100.00
41264;BME280;26998;48.714;9.414;2023-08-24T00:59:02;100027.53;;;18.11;100.00
41264;BME280;26998;48.714;9.414;2023-08-24T01:01:29;100028.16;;;18.06;100.00
41264;BME280;26998;48.714;9.414;2023-08-24T01:03:56;100050.13;;;17.91;100.00
41264;BME280;26998;48.714;9.414;2023-08-24T01:06:22;100064.25;;;17.93;100.00
41264;BME280;26998;48.714;9.414;2023-08-24T01:08:49;100071.09;;;17.96;100.00
41264;BME280;26998;48.714;9.414;2023-08-24T01:11:37;100076.13;;;17.92;100.00
41264;BME280;26998;48.714;9.414;2023-08-24T01:14:18;100083.59;;;17.90;100.00
41264;BME280;26998;48.714;9.414;2023-08-24T01:16:47;100062.38;;;17.94;100.00
41264;BME280;26998;48.714;9.414;2023-08-24T01:19:38;100070.31;;;17.89;100.00
41264;BME280;26998;48.714;9.414;2023-08-24T01:22:27;100071.34;;;17.88;100.00
41264;BME280;26998;48.714;9.414;2023-08-24T01:27:32;100053.44;;;17.93;100.00
41264;BME280;26998;48.714;9.414;2023-08-24T01:29:59;100044.56;;;17.80;100.00
41264;BME280;26998;48.714;9.414;2023-08-24T01:32:26;100054.13;;;17.82;100.00
41264;BME280;26998;48.714;9.414;2023-08-24T01:34:52;100026.69;;;18.10;100.00
41264;BME280;26998;48.714;9.414;2023-08-24T01:37:19;99997.59;;;18.06;100.00
41264;BME280;26998;48.714;9.414;2023-08-24T01:42:20;99993.22;;;18.05;100.00
41264;BME280;26998;48.714;9.414;2023-08-24T01:44:52;99990.22;;;18.19;100.00
41264;BME280;26998;48.714;9.414;2023-08-24T01:47:23;99990.59;;;18.23;100.00
41264;BME280;26998;48.714;9.414;2023-08-24T01:49:50;99998.16;;;18.14;100.00
41264;BME280;26998;48.714;9.414;2023-08-24T01:52:20;100002.75;;;18.14;100.00
41264;BME280;26998;48.714;9.414;2023-08-24T01:54:49;100019.50;;;17.97;100.00
41264;BME280;26998;48.714;9.414;2023-08-24T01:57:16;100049.16;;;17.79;100.00
41264;BME280;26998;48.714;9.414;2023-08-24T01:59:42;100077.69;;;17.62;100.00
41264;BME280;26998;48.714;9.414;2023-08-24T02:02:09;100097.84;;;17.59;100.00
41264;BME280;26998;48.714;9.414;2023-08-24T02:04:35;100105.34;;;17.64;100.00
41264;BME280;26998;48.714;9.414;2023-08-24T02:07:02;100124.88;;;17.59;100.00
41264;BME280;26998;48.714;9.414;2023-08-24T02:09:29;100126.50;;;17.73;100.00
41264;BME280;26998;48.714;9.414;2023-08-24T02:11:55;100102.38;;;17.85;100.00
41264;BME280;26998;48.714;9.414;2023-08-24T02:14:21;100101.94;;;17.75;100.00
41264;BME280;26998;48.714;9.414;2023-08-24T02:16:48;100103.22;;;17.79;100.00
41264;BME280;26998;48.714;9.414;2023-08-24T02:19:15;100107.16;;;17.76;100.00
41264;BME280;26998;48.714;9.414;2023-08-24T02:21:42;100093.44;;;17.71;100.00
41264;BME280;26998;48.714;9.414;2023-08-24T02:24:08;100122.56;;;17.76;100.00
41264;BME280;26998;48.714;9.414;2023-08-24T02:26:35;100115.91;;;17.72;100.00
41264;BME280;26998;48.714;9.414;2023-08-24T02:29:01;100114.25;;;17.71;100.00
41264;BME280;26998;48.714;9.414;2023-08-24T02:31:28;100124.66;;;17.67;100.00
41264;BME280;26998;48.714;9.414;2023-08-24T02:33:54;100133.03;;;17.52;100.00
41264;BME280;26998;48.714;9.414;2023-08-24T02:36:21;100155.09;;;17.43;100.00
41264;BME280;26998;48.714;9.414;2023-08-24T02:38:48;100178.59;;;17.42;100.00
41264;BME280;26998;48.714;9.414;2023-08-24T02:41:18;100183.34;;;17.40;100.00
41264;BME280;26998;48.714;9.414;2023-08-24T02:43:44;100196.88;;;17.40;100.00
41264;BME280;26998;48.714;9.414;2023-08-24T02:46:12;100185.84;;;17.48;100.00
41264;BME280;26998;48.714;9.414;2023-08-24T02:48:39;100181.72;;;17.39;100.00
41264;BME280;26998;48.714;9.414;2023-08-24T02:51:10;100194.81;;;17.29;100.00
41264;BME280;26998;48.714;9.414;2023-08-24T02:53:36;100201.25;;;17.28;100.00
41264;BME280;26998;48.714;9.414;2023-08-24T02:56:03;100203.94;;;17.21;100.00
41264;BME280;26998;48.714;9.414;2023-08-24T02:58:30;100211.88;;;17.23;100.00
41264;BME280;26998;48.714;9.414;2023-08-24T03:00:56;100200.63;;;17.33;100.00
41264;BME280;26998;48.714;9.414;2023-08-24T03:03:24;100185.03;;;17.35;100.00
41264;BME280;26998;48.714;9.414;2023-08-24T03:08:19;100176.47;;;17.44;100.00
41264;BME280;26998;48.714;9.414;2023-08-24T03:10:46;100168.59;;;17.43;100.00
41264;BME280;26998;48.714;9.414;2023-08-24T03:13:13;100159.84;;;17.54;100.00
41264;BME280;26998;48.714;9.414;2023-08-24T03:15:40;100138.22;;;17.61;100.00
41264;BME280;26998;48.714;9.414;2023-08-24T03:18:07;100126.19;;;17.43;100.00
41264;BME280;26998;48.714;9.414;2023-08-24T03:20:33;100145.56;;;17.27;100.00
41264;BME280;26998;48.714;9.414;2023-08-24T03:23:00;100174.03;;;17.23;100.00
41264;BME280;26998;48.714;9.414;2023-08-24T03:25:26;100171.94;;;17.25;100.00
41264;BME280;26998;48.714;9.414;2023-08-24T03:27:53;100165.91;;;17.29;100.00
41264;BME280;26998;48.714;9.414;2023-08-24T03:30:19;100164.22;;;17.35;100.00
41264;BME280;26998;48.714;9.414;2023-08-24T03:32:49;100169.03;;;17.33;100.00
41264;BME280;26998;48.714;9.414;2023-08-24T03:35:16;100172.34;;;17.35;100.00
41264;BME280;26998;48.714;9.414;2023-08-24T03:37:42;100171.53;;;17.21;100.00
41264;BME280;26998;48.714;9.414;2023-08-24T03:40:09;100182.34;;;17.15;100.00
41264;BME280;26998;48.714;9.414;2023-08-24T03:42:36;100200.44;;;17.14;100.00
41264;BME280;26998;48.714;9.414;2023-08-24T03:45:03;100189.41;;;17.16;100.00
41264;BME280;26998;48.714;9.414;2023-08-24T03:47:29;100184.00;;;17.36;100.00
41264;BME280;26998;48.714;9.414;2023-08-24T03:49:56;100156.94;;;17.49;100.00
41264;BME280;26998;48.714;9.414;2023-08-24T03:52:23;100137.63;;;17.45;100.00
41264;BME280;26998;48.714;9.414;2023-08-24T03:54:49;100134.94;;;17.39;100.00
41264;BME280;26998;48.714;9.414;2023-08-24T03:57:16;100166.16;;;17.08;100.00
41264;BME280;26998;48.714;9.414;2023-08-24T03:59:45;100180.25;;;17.03;100.00
41264;BME280;26998;48.714;9.414;2023-08-24T04:02:11;100186.28;;;17.05;100.00
41264;BME280;26998;48.714;9.414;2023-08-24T04:04:37;100182.97;;;17.10;100.00
41264;BME280;26998;48.714;9.414;2023-08-24T04:07:04;100175.69;;;17.17;100.00
41264;BME280;26998;48.714;9.414;2023-08-24T04:09:30;100166.75;;;17.23;100.00
41264;BME280;26998;48.714;9.414;2023-08-24T04:11:59;100158.44;;;17.18;100.00
41264;BME280;26998;48.714;9.414;2023-08-24T04:14:25;100167.59;;;17.17;100.00
41264;BME280;26998;48.714;9.414;2023-08-24T04:16:51;100175.69;;;17.17;100.00
41264;BME280;26998;48.714;9.414;2023-08-24T04:19:18;100175.50;;;17.05;100.00
41264;BME280;26998;48.714;9.414;2023-08-24T04:21:45;100195.22;;;16.99;100.00
41264;BME280;26998;48.714;9.414;2023-08-24T04:24:12;100194.81;;;17.09;100.00
41264;BME280;26998;48.714;9.414;2023-08-24T04:26:38;100186.06;;;17.07;100.00
41264;BME280;26998;48.714;9.414;2023-08-24T04:29:05;100189.81;;;17.13;100.00
41264;BME280;26998;48.714;9.414;2023-08-24T04:31:31;100191.28;;;17.08;100.00
41264;BME280;26998;48.714;9.414;2023-08-24T04:33:58;100182.75;;;17.12;100.00
41264;BME280;26998;48.714;9.414;2023-08-24T04:36:25;100176.94;;;17.15;100.00
41264;BME280;26998;48.714;9.414;2023-08-24T04:38:52;100167.59;;;17.11;100.00
41264;BME280;26998;48.714;9.414;2023-08-24T04:41:18;100158.25;;;17.20;100.00
41264;BME280;26998;48.714;9.414;2023-08-24T04:43:45;100154.28;;;17.16;100.00
41264;BME280;26998;48.714;9.414;2023-08-24T04:46:12;100148.88;;;17.22;100.00
41264;BME280;26998;48.714;9.414;2023-08-24T04:48:38;100140.16;;;17.27;100.00
41264;BME280;26998;48.714;9.414;2023-08-24T04:51:05;100125.38;;;17.36;100.00
41264;BME280;26998;48.714;9.414;2023-08-24T04:53:31;100111.66;;;17.31;100.00
41264;BME280;26998;48.714;9.414;2023-08-24T04:55:58;100118.13;;;17.30;100.00
41264;BME280;26998;48.714;9.414;2023-08-24T04:58:24;100121.88;;;17.29;100.00
41264;BME280;26998;48.714;9.414;2023-08-24T05:00:51;100135.38;;;17.29;100.00
41264;BME280;26998;48.714;9.414;2023-08-24T05:03:18;100134.28;;;17.43;100.00
41264;BME280;26998;48.714;9.414;2023-08-24T05:05:44;100120.81;;;17.30;100.00
41264;BME280;26998;48.714;9.414;2023-08-24T05:08:13;100124.31;;;17.37;100.00
41264;BME280;26998;48.714;9.414;2023-08-24T05:10:40;100104.78;;;17.35;100.00
41264;BME280;26998;48.714;9.414;2023-08-24T05:13:06;100111.44;;;17.39;100.00
41264;BME280;26998;48.714;9.414;2023-08-24T05:15:33;100105.19;;;17.45;100.00
41264;BME280;26998;48.714;9.414;2023-08-24T05:17:59;100100.81;;;17.44;100.00
41264;BME280;26998;48.714;9.414;2023-08-24T05:20:26;100097.50;;;17.42;100.00
41264;BME280;26998;48.714;9.414;2023-08-24T05:22:53;100094.13;;;17.53;100.00
41264;BME280;26998;48.714;9.414;2023-08-24T05:25:20;100081.00;;;17.64;100.00
41264;BME280;26998;48.714;9.414;2023-08-24T05:27:47;100059.56;;;17.69;100.00
41264;BME280;26998;48.714;9.414;2023-08-24T05:30:14;100047.88;;;17.82;100.00
41264;BME280;26998;48.714;9.414;2023-08-24T05:32:40;100034.56;;;17.80;100.00
41264;BME280;26998;48.714;9.414;2023-08-24T05:35:08;100036.41;;;17.86;100.00
41264;BME280;26998;48.714;9.414;2023-08-24T05:37:35;100015.34;;;17.95;100.00
41264;BME280;26998;48.714;9.414;2023-08-24T05:40:02;99984.44;;;18.09;100.00
41264;BME280;26998;48.714;9.414;2023-08-24T05:42:30;99939.47;;;18.15;100.00
41264;BME280;26998;48.714;9.414;2023-08-24T05:45:01;99946.56;;;18.09;100.00
41264;BME280;26998;48.714;9.414;2023-08-24T05:47:27;99939.06;;;18.36;100.00
41264;BME280;26998;48.714;9.414;2023-08-24T05:49:54;99892.44;;;18.34;100.00
41264;BME280;26998;48.714;9.414;2023-08-24T05:52:21;99871.94;;;18.45;100.00
41264;BME280;26998;48.714;9.414;2023-08-24T05:54:47;99864.78;;;18.32;100.00
41264;BME280;26998;48.714;9.414;2023-08-24T05:57:14;99898.81;;;18.21;100.00
41264;BME280;26998;48.714;9.414;2023-08-24T05:59:40;99921.56;;;18.14;100.00
41264;BME280;26998;48.714;9.414;2023-08-24T06:02:07;99923.94;;;18.29;100.00
41264;BME280;26998;48.714;9.414;2023-08-24T06:04:33;99887.03;;;18.53;100.00
41264;BME280;26998;48.714;9.414;2023-08-24T06:07:00;99842.28;;;18.68;100.00
41264;BME280;26998;48.714;9.414;2023-08-24T06:09:27;99801.22;;;18.90;100.00
41264;BME280;26998;48.714;9.414;2023-08-24T06:11:53;99743.81;;;19.11;100.00
41264;BME280;26998;48.714;9.414;2023-08-24T06:14:20;99670.22;;;19.26;100.00
41264;BME280;26998;48.714;9.414;2023-08-24T06:16:46;99647.00;;;19.30;100.00
41264;BME280;26998;48.714;9.414;2023-08-24T06:19:13;99624.25;;;19.43;100.00
41264;BME280;26998;48.714;9.414;2023-08-24T06:21:39;99638.38;;;19.45;100.00
41264;BME280;26998;48.714;9.414;2023-08-24T06:24:06;99632.84;;;19.40;100.00
41264;BME280;26998;48.714;9.414;2023-08-24T06:26:33;99620.56;;;19.49;100.00
41264;BME280;26998;48.714;9.414;2023-08-24T06:28:59;99604.19;;;19.56;100.00
41264;BME280;26998;48.714;9.414;2023-08-24T06:31:25;99575.63;;;19.77;100.00
41264;BME280;26998;48.714;9.414;2023-08-24T06:33:52;99583.63;;;19.83;100.00
41264;BME280;26998;48.714;9.414;2023-08-24T06:36:18;99537.59;;;20.17;100.00
41264;BME280;26998;48.714;9.414;2023-08-24T06:38:45;99524.78;;;20.29;100.00
41264;BME280;26998;48.714;9.414;2023-08-24T06:41:11;99506.88;;;20.28;100.00
41264;BME280;26998;48.714;9.414;2023-08-24T06:43:38;99452.84;;;20.61;100.00
41264;BME280;26998;48.714;9.414;2023-08-24T06:46:06;99499.28;;;20.30;100.00
41264;BME280;26998;48.714;9.414;2023-08-24T06:48:32;99505.47;;;20.43;100.00
41264;BME280;26998;48.714;9.414;2023-08-24T06:50:59;99477.19;;;20.39;100.00
41264;BME280;26998;48.714;9.414;2023-08-24T06:53:26;99543.97;;;20.40;100.00
41264;BME280;26998;48.714;9.414;2023-08-24T06:55:56;99447.91;;;20.58;100.00
41264;BME280;26998;48.714;9.414;2023-08-24T06:58:23;99462.69;;;20.50;100.00
41264;BME280;26998;48.714;9.414;2023-08-24T07:00:50;99447.03;;;20.40;100.00
41264;BME280;26998;48.714;9.414;2023-08-24T07:03:18;99468.94;;;20.34;100.00
41264;BME280;26998;48.714;9.414;2023-08-24T07:05:45;99477.34;;;20.32;100.00
41264;BME280;26998;48.714;9.414;2023-08-24T07:08:13;99502.09;;;20.19;100.00
41264;BME280;26998;48.714;9.414;2023-08-24T07:10:42;99545.25;;;20.20;100.00
41264;BME280;26998;48.714;9.414;2023-08-24T07:13:09;99548.78;;;20.21;100.00
41264;BME280;26998;48.714;9.414;2023-08-24T07:15:35;99553.72;;;20.24;100.00
41264;BME280;26998;48.714;9.414;2023-08-24T07:18:03;99542.81;;;20.36;100.00
41264;BME280;26998;48.714;9.414;2023-08-24T07:20:32;99512.50;;;20.56;100.00
41264;BME280;26998;48.714;9.414;2023-08-24T07:22:59;99476.69;;;20.75;100.00
41264;BME280;26998;48.714;9.414;2023-08-24T07:25:25;99411.13;;;20.89;100.00
41264;BME280;26998;48.714;9.414;2023-08-24T07:27:52;99356.75;;;21.11;100.00
41264;BME280;26998;48.714;9.414;2023-08-24T07:30:19;99280.16;;;21.73;100.00
41264;BME280;26998;48.714;9.414;2023-08-24T07:32:59;99247.00;;;22.24;100.00
41264;BME280;26998;48.714;9.414;2023-08-24T07:35:25;99185.59;;;22.53;100.00
41264;BME280;26998;48.714;9.414;2023-08-24T07:37:52;99144.50;;;22.75;100.00
41264;BME280;26998;48.714;9.414;2023-08-24T07:40:19;99154.81;;;22.53;100.00
41264;BME280;26998;48.714;9.414;2023-08-24T07:42:47;99149.06;;;22.44;100.00
41264;BME280;26998;48.714;9.414;2023-08-24T07:45:14;99152.94;;;22.79;100.00
41264;BME280;26998;48.714;9.414;2023-08-24T07:47:41;99143.41;;;22.71;100.00
41264;BME280;26998;48.714;9.414;2023-08-24T07:50:09;99151.06;;;23.05;100.00
41264;BME280;26998;48.714;9.414;2023-08-24T07:52:37;99119.13;;;22.49;100.00
41264;BME280;26998;48.714;9.414;2023-08-24T07:55:05;99124.59;;;22.59;100.00
41264;BME280;26998;48.714;9.414;2023-08-24T07:57:36;99183.16;;;22.57;100.00
41264;BME280;26998;48.714;9.414;2023-08-24T08:00:06;99102.00;;;22.85;100.00
41264;BME280;26998;48.714;9.414;2023-08-24T08:02:35;99074.19;;;23.28;100.00
41264;BME280;26998;48.714;9.414;2023-08-24T08:05:04;98996.50;;;23.86;100.00
41264;BME280;26998;48.714;9.414;2023-08-24T08:07:31;98976.03;;;24.28;100.00
41264;BME280;26998;48.714;9.414;2023-08-24T08:09:58;98979.78;;;23.97;100.00
41264;BME280;26998;48.714;9.414;2023-08-24T08:12:25;98986.75;;;24.14;100.00
41264;BME280;26998;48.714;9.414;2023-08-24T08:14:51;98982.84;;;24.30;100.00
41264;BME280;26998;48.714;9.414;2023-08-24T08:17:18;98939.56;;;24.48;100.00
41264;BME280;26998;48.714;9.414;2023-08-24T08:19:45;98913.81;;;24.54;100.00
41264;BME280;26998;48.714;9.414;2023-08-24T08:22:12;98942.84;;;24.45;100.00
41264;BME280;26998;48.714;9.414;2023-08-24T08:24:39;98895.22;;;25.28;100.00
41264;BME280;26998;48.714;9.414;2023-08-24T08:27:05;98866.00;;;25.23;100.00
41264;BME280;26998;48.714;9.414;2023-08-24T08:29:32;98863.94;;;25.15;100.00
41264;BME280;26998;48.714;9.414;2023-08-24T08:31:59;98854.34;;;25.18;100.00
41264;BME280;26998;48.714;9.414;2023-08-24T08:34:25;98869.13;;;25.35;100.00
41264;BME280;26998;48.714;9.414;2023-08-24T08:36:52;98845.78;;;25.62;100.00
41264;BME280;26998;48.714;9.414;2023-08-24T08:39:19;98835.09;;;25.61;100.00
41264;BME280;26998;48.714;9.414;2023-08-24T08:41:48;98821.06;;;26.33;100.00
41264;BME280;26998;48.714;9.414;2023-08-24T08:44:15;98795.19;;;26.39;100.00
41264;BME280;26998;48.714;9.414;2023-08-24T08:46:43;98792.94;;;26.27;100.00
41264;BME280;26998;48.714;9.414;2023-08-24T08:49:12;98786.47;;;26.51;100.00
41264;BME280;26998;48.714;9.414;2023-08-24T08:51:39;98801.59;;;26.76;100.00
41264;BME280;26998;48.714;9.414;2023-08-24T08:54:06;98776.53;;;26.68;100.00
41264;BME280;26998;48.714;9.414;2023-08-24T08:56:33;98786.06;;;26.85;100.00
41264;BME280;26998;48.714;9.414;2023-08-24T08:59:00;98773.25;;;26.94;100.00
41264;BME280;26998;48.714;9.414;2023-08-24T09:01:28;98763.66;;;27.19;100.00
41264;BME280;26998;48.714;9.414;2023-08-24T09:03:56;98757.34;;;27.32;100.00
41264;BME280;26998;48.714;9.414;2023-08-24T09:06:23;98751.88;;;27.41;100.00
41264;BME280;26998;48.714;9.414;2023-08-24T09:08:53;98744.78;;;27.62;100.00
41264;BME280;26998;48.714;9.414;2023-08-24T09:11:21;98739.91;;;27.37;100.00
41264;BME280;26998;48.714;9.414;2023-08-24T09:13:51;98738.53;;;27.71;100.00
41264;BME280;26998;48.714;9.414;2023-08-24T09:16:18;98732.50;;;27.82;100.00
41264;BME280;26998;48.714;9.414;2023-08-24T09:18:46;98726.19;;;27.37;100.00
41264;BME280;26998;48.714;9.414;2023-08-24T09:21:14;98721.69;;;27.41;100.00
41264;BME280;26998;48.714;9.414;2023-08-24T09:23:52;98708.59;;;27.60;100.00
41264;BME280;26998;48.714;9.414;2023-08-24T09:26:29;98705.69;;;27.79;100.00
41264;BME280;26998;48.714;9.414;2023-08-24T09:28:56;98702.22;;;27.74;100.00
41264;BME280;26998;48.714;9.414;2023-08-24T09:31:23;98685.16;;;28.17;100.00
41264;BME280;26998;48.714;9.414;2023-08-24T09:34:00;98680.09;;;28.41;100.00
41264;BME280;26998;48.714;9.414;2023-08-24T09:36:30;98673.81;;;28.67;100.00
41264;BME280;26998;48.714;9.414;2023-08-24T09:38:58;98664.41;;;28.68;100.00
41264;BME280;26998;48.714;9.414;2023-08-24T09:41:40;98645.66;;;28.70;100.00
41264;BME280;26998;48.714;9.414;2023-08-24T09:44:07;98642.75;;;28.92;100.00
41264;BME280;26998;48.714;9.414;2023-08-24T09:46:37;98630.78;;;28.88;100.00
41264;BME280;26998;48.714;9.414;2023-08-24T09:49:05;98640.16;;;29.22;100.00
41264;BME280;26998;48.714;9.414;2023-08-24T09:51:33;98633.16;;;29.42;98.04
41264;BME280;26998;48.714;9.414;2023-08-24T09:54:04;98629.88;;;29.66;98.02
41264;BME280;26998;48.714;9.414;2023-08-24T09:56:35;98626.06;;;30.18;95.80
41264;BME280;26998;48.714;9.414;2023-08-24T09:59:07;98620.41;;;30.65;93.27
41264;BME280;26998;48.714;9.414;2023-08-24T10:01:37;98612.81;;;30.41;95.28
41264;BME280;26998;48.714;9.414;2023-08-24T10:04:05;98595.69;;;29.97;97.60
41264;BME280;26998;48.714;9.414;2023-08-24T10:06:35;98590.53;;;29.57;100.00
41264;BME280;26998;48.714;9.414;2023-08-24T10:09:02;98584.41;;;30.19;99.57
41264;BME280;26998;48.714;9.414;2023-08-24T10:11:36;98582.09;;;30.00;100.00
41264;BME280;26998;48.714;9.414;2023-08-24T10:14:16;98573.31;;;30.28;100.00
41264;BME280;26998;48.714;9.414;2023-08-24T10:16:45;98571.13;;;30.12;99.76
41264;BME280;26998;48.714;9.414;2023-08-24T10:19:13;98571.38;;;29.99;100.00
41264;BME280;26998;48.714;9.414;2023-08-24T10:21:41;98559.72;;;30.44;99.52
41264;BME280;26998;48.714;9.414;2023-08-24T10:24:09;98542.81;;;30.54;99.40
41264;BME280;26998;48.714;9.414;2023-08-24T10:26:36;98547.63;;;31.11;96.65
41264;BME280;26998;48.714;9.414;2023-08-24T10:29:06;98537.13;;;31.38;94.13
41264;BME280;26998;48.714;9.414;2023-08-24T10:31:33;98529.72;;;31.29;94.29
41264;BME280;26998;48.714;9.414;2023-08-24T10:34:01;98533.69;;;31.08;96.99
41264;BME280;26998;48.714;9.414;2023-08-24T10:36:28;98532.19;;;30.77;99.51
41264;BME280;26998;48.714;9.414;2023-08-24T10:38:56;98536.38;;;31.16;96.79
41264;BME280;26998;48.714;9.414;2023-08-24T10:41:26;98527.78;;;30.85;99.20
41264;BME280;26998;48.714;9.414;2023-08-24T10:44:04;98532.94;;;30.65;100.00
41264;BME280;26998;48.714;9.414;2023-08-24T10:46:34;98527.69;;;31.39;98.25
41264;BME280;26998;48.714;9.414;2023-08-24T10:49:04;98519.22;;;31.11;97.55
41264;BME280;26998;48.714;9.414;2023-08-24T10:51:30;98518.50;;;31.47;96.05
41264;BME280;26998;48.714;9.414;2023-08-24T10:54:01;98516.75;;;31.55;97.41
41264;BME280;26998;48.714;9.414;2023-08-24T10:56:37;98506.28;;;31.48;94.71
41264;BME280;26998;48.714;9.414;2023-08-24T10:59:15;98509.28;;;31.92;94.07
41264;BME280;26998;48.714;9.414;2023-08-24T11:04:18;98490.72;;;31.80;93.69
41264;BME280;26998;48.714;9.414;2023-08-24T11:06:53;98485.16;;;32.17;94.09
41264;BME280;26998;48.714;9.414;2023-08-24T11:09:19;98479.53;;;32.13;91.51
41264;BME280;26998;48.714;9.414;2023-08-24T11:14:23;98470.47;;;32.01;93.53
41264;BME280;26998;48.714;9.414;2023-08-24T11:16:49;98473.09;;;32.37;92.21
41264;BME280;26998;48.714;9.414;2023-08-24T11:19:18;98458.81;;;32.07;94.53
41264;BME280;26998;48.714;9.414;2023-08-24T11:21:46;98452.56;;;32.38;92.08
41264;BME280;26998;48.714;9.414;2023-08-24T11:24:13;98444.28;;;32.10;93.64
41264;BME280;26998;48.714;9.414;2023-08-24T11:26:42;98448.22;;;32.37;92.26
41264;BME280;26998;48.714;9.414;2023-08-24T11:29:09;98448.75;;;32.43;90.33
41264;BME280;26998;48.714;9.414;2023-08-24T11:31:36;98443.09;;;32.52;91.37
41264;BME280;26998;48.714;9.414;2023-08-24T11:34:08;98446.13;;;33.06;87.88
41264;BME280;26998;48.714;9.414;2023-08-24T11:36:48;98431.00;;;32.72;90.24
41264;BME280;26998;48.714;9.414;2023-08-24T11:39:17;98437.28;;;33.17;88.25
41264;BME280;26998;48.714;9.414;2023-08-24T11:41:44;98418.84;;;32.93;87.74
41264;BME280;26998;48.714;9.414;2023-08-24T11:44:11;98418.69;;;33.33;86.29
41264;BME280;26998;48.714;9.414;2023-08-24T11:46:56;98411.53;;;33.32;84.23
41264;BME280;26998;48.714;9.414;2023-08-24T11:49:22;98400.38;;;33.28;83.89
41264;BME280;26998;48.714;9.414;2023-08-24T11:51:50;98403.28;;;33.00;86.17
41264;BME280;26998;48.714;9.414;2023-08-24T11:54:20;98393.97;;;33.24;83.33
41264;BME280;26998;48.714;9.414;2023-08-24T11:56:47;98396.97;;;33.35;84.38
41264;BME280;26998;48.714;9.414;2023-08-24T11:59:14;98400.56;;;33.20;83.27
41264;BME280;26998;48.714;9.414;2023-08-24T12:01:41;98405.09;;;33.44;82.38
41264;BME280;26998;48.714;9.414;2023-08-24T12:04:08;98392.41;;;33.78;80.57
41264;BME280;26998;48.714;9.414;2023-08-24T12:06:35;98399.56;;;33.98;76.37
41264;BME280;26998;48.714;9.414;2023-08-24T12:09:05;98396.03;;;33.63;79.89
41264;BME280;26998;48.714;9.414;2023-08-24T12:11:38;98389.19;;;33.56;79.65
41264;BME280;26998;48.714;9.414;2023-08-24T12:14:06;98394.66;;;32.89;83.18
41264;BME280;26998;48.714;9.414;2023-08-24T12:16:33;98383.31;;;32.47;85.57
41264;BME280;26998;48.714;9.414;2023-08-24T12:19:00;98374.69;;;33.12;84.98
41264;BME280;26998;48.714;9.414;2023-08-24T12:21:26;98379.72;;;33.42;82.18
41264;BME280;26998;48.714;9.414;2023-08-24T12:24:02;98381.28;;;33.07;77.86
41264;BME280;26998;48.714;9.414;2023-08-24T12:26:29;98376.31;;;33.84;72.39
41264;BME280;26998;48.714;9.414;2023-08-24T12:29:01;98374.72;;;34.21;71.38
41264;BME280;26998;48.714;9.414;2023-08-24T12:31:29;98359.22;;;34.40;65.86
41264;BME280;26998;48.714;9.414;2023-08-24T12:34:00;98356.22;;;33.71;69.87
41264;BME280;26998;48.714;9.414;2023-08-24T12:36:27;98359.53;;;33.41;71.66
41264;BME280;26998;48.714;9.414;2023-08-24T12:38:54;98335.69;;;33.37;71.35
41264;BME280;26998;48.714;9.414;2023-08-24T12:41:22;98338.22;;;33.61;72.27
41264;BME280;26998;48.714;9.414;2023-08-24T12:43:52;98320.28;;;33.74;71.92
41264;BME280;26998;48.714;9.414;2023-08-24T12:46:19;98319.63;;;33.81;69.41
41264;BME280;26998;48.714;9.414;2023-08-24T12:48:46;98311.66;;;34.18;65.96
41264;BME280;26998;48.714;9.414;2023-08-24T12:51:12;98310.94;;;34.44;64.98
41264;BME280;26998;48.714;9.414;2023-08-24T12:53:39;98304.16;;;33.99;68.57
41264;BME280;26998;48.714;9.414;2023-08-24T12:56:06;98293.97;;;34.49;63.25
41264;BME280;26998;48.714;9.414;2023-08-24T12:58:33;98291.94;;;34.46;64.06
41264;BME280;26998;48.714;9.414;2023-08-24T13:01:00;98279.31;;;34.72;60.88
41264;BME280;26998;48.714;9.414;2023-08-24T13:03:26;98289.75;;;34.82;60.92